createdAt,value
2019-03-20T00:00:29.971Z,78.60
2019-03-20T00:02:59.552Z,78.90
2019-03-20T00:05:29.038Z,79.45
2019-03-20T00:07:58.490Z,78.83
2019-03-20T00:10:28.721Z,78.62
2019-03-20T00:12:58.176Z,78.75
2019-03-20T00:15:27.609Z,78.97
2019-03-20T00:17:57.115Z,78.77
2019-03-20T00:20:26.916Z,78.34
2019-03-20T00:22:56.310Z,78.20
2019-03-20T00:25:25.802Z,78.12
2019-03-20T00:27:55.283Z,77.74
2019-03-20T00:30:24.839Z,78.37
2019-03-20T00:32:54.363Z,77.78
2019-03-20T00:35:23.801Z,77.39
2019-03-20T00:37:53.244Z,78.20
2019-03-20T00:40:22.717Z,78.02
2019-03-20T00:42:52.169Z,78.63
2019-03-20T00:45:22.549Z,78.65
2019-03-20T00:47:51.999Z,78.20
2019-03-20T00:50:21.997Z,78.34
2019-03-20T00:52:51.456Z,78.16
2019-03-20T00:55:21.272Z,78.46
2019-03-20T00:57:50.787Z,78.52
2019-03-20T01:00:43.634Z,79.03
2019-03-20T01:03:13.063Z,79.37
2019-03-20T01:05:42.563Z,79.29
2019-03-20T01:08:11.981Z,79.84
2019-03-20T01:10:41.487Z,79.88
2019-03-20T01:13:10.940Z,80.04
2019-03-20T01:15:40.405Z,80.63
2019-03-20T01:18:09.879Z,80.41
2019-03-20T01:20:39.323Z,80.81
2019-03-20T01:23:08.853Z,80.65
2019-03-20T01:25:38.369Z,80.62
2019-03-20T01:28:07.810Z,80.49
2019-03-20T01:30:40.380Z,80.85
2019-03-20T01:33:13.977Z,80.54
2019-03-20T01:35:43.449Z,80.80
2019-03-20T01:38:12.950Z,80.94
2019-03-20T01:40:42.389Z,81.53
2019-03-20T01:43:11.864Z,81.57
2019-03-20T01:45:41.360Z,82.15
2019-03-20T01:48:10.805Z,82.09
2019-03-20T01:50:40.250Z,82.08
2019-03-20T01:53:09.717Z,81.61
2019-03-20T01:55:39.176Z,81.62
2019-03-20T01:58:08.674Z,81.44
2019-03-20T02:00:38.455Z,81.27
2019-03-20T02:03:07.908Z,81.24
2019-03-20T02:05:37.360Z,81.43
2019-03-20T02:08:06.904Z,81.58
2019-03-20T02:10:36.439Z,81.39
2019-03-20T02:13:06.034Z,81.31
2019-03-20T02:15:39.354Z,81.10
2019-03-20T02:18:06.630Z,80.67
2019-03-20T02:20:36.142Z,80.42
2019-03-20T02:23:05.572Z,79.53
2019-03-20T02:25:35.026Z,79.00
2019-03-20T02:28:04.466Z,79.08
2019-03-20T02:30:33.927Z,79.78
2019-03-20T02:33:03.377Z,79.27
2019-03-20T02:35:32.830Z,79.16
2019-03-20T02:38:02.347Z,78.50
2019-03-20T02:40:31.836Z,78.61
2019-03-20T02:43:01.340Z,78.79
2019-03-20T02:45:30.769Z,78.51
2019-03-20T02:48:00.298Z,78.55
2019-03-20T02:50:29.788Z,78.88
2019-03-20T02:52:59.397Z,79.34
2019-03-20T02:55:28.811Z,79.43
2019-03-20T02:57:58.314Z,79.63
2019-03-20T03:00:27.780Z,79.63
2019-03-20T03:02:57.221Z,79.84
2019-03-20T03:05:26.655Z,79.22
2019-03-20T03:07:56.113Z,78.82
2019-03-20T03:10:25.638Z,79.17
2019-03-20T03:12:55.085Z,78.41
2019-03-20T03:15:24.579Z,78.20
2019-03-20T03:17:54.086Z,78.61
2019-03-20T03:20:23.540Z,78.07
2019-03-20T03:22:53.017Z,77.44
2019-03-20T03:25:22.450Z,77.94
2019-03-20T03:27:51.901Z,77.95
2019-03-20T03:30:21.355Z,78.32
2019-03-20T03:32:50.801Z,78.47
2019-03-20T03:35:20.544Z,78.42
2019-03-20T03:37:50.167Z,78.52
2019-03-20T03:40:20.615Z,78.75
2019-03-20T03:42:50.216Z,77.96
2019-03-20T03:45:19.668Z,77.65
2019-03-20T03:47:49.105Z,78.07
2019-03-20T03:50:18.525Z,77.75
2019-03-20T03:52:47.981Z,78.30
2019-03-20T03:55:17.468Z,78.46
2019-03-20T03:57:46.977Z,78.62
2019-03-20T04:00:18.544Z,78.31
2019-03-20T04:02:47.980Z,78.53
2019-03-20T04:05:17.709Z,79.01
2019-03-20T04:07:47.257Z,79.21
2019-03-20T04:10:17.619Z,78.36
2019-03-20T04:12:47.165Z,77.85
2019-03-20T04:15:17.164Z,78.07
2019-03-20T04:17:46.658Z,77.94
2019-03-20T04:20:18.101Z,77.88
2019-03-20T04:22:47.722Z,77.68
2019-03-20T04:25:17.305Z,77.64
2019-03-20T04:27:46.821Z,78.29
2019-03-20T04:30:18.411Z,77.22
2019-03-20T04:32:47.986Z,76.82
2019-03-20T04:35:17.496Z,77.03
2019-03-20T04:37:47.052Z,77.36
2019-03-20T04:40:18.365Z,77.24
2019-03-20T04:42:47.860Z,77.21
2019-03-20T04:45:17.788Z,77.74
2019-03-20T04:47:47.320Z,77.35
2019-03-20T04:50:17.313Z,77.47
2019-03-20T04:52:46.871Z,76.98
2019-03-20T04:55:16.306Z,76.96
2019-03-20T04:57:46.202Z,76.13
2019-03-20T05:00:18.701Z,76.15
2019-03-20T05:02:48.140Z,75.35
2019-03-20T05:05:17.582Z,75.56
2019-03-20T05:07:47.052Z,74.59
2019-03-20T05:10:21.016Z,74.76
2019-03-20T05:12:50.462Z,75.68
2019-03-20T05:15:19.969Z,74.88
2019-03-20T05:17:49.476Z,74.57
2019-03-20T05:20:22.605Z,75.22
2019-03-20T05:22:52.138Z,74.50
2019-03-20T05:25:21.646Z,74.47
2019-03-20T05:27:51.099Z,74.19
2019-03-20T05:30:20.679Z,72.79
2019-03-20T05:32:50.138Z,72.24
2019-03-20T05:35:19.608Z,71.96
2019-03-20T05:37:49.103Z,71.79
2019-03-20T05:40:19.631Z,71.57
2019-03-20T05:42:49.098Z,71.57
2019-03-20T05:45:19.321Z,71.64
2019-03-20T05:47:48.780Z,71.13
2019-03-20T05:50:18.455Z,70.13
2019-03-20T05:52:47.888Z,70.33
2019-03-20T05:55:17.371Z,70.14
2019-03-20T05:57:46.959Z,69.88
2019-03-20T06:00:40.007Z,69.27
2019-03-20T06:03:09.477Z,68.39
2019-03-20T06:05:38.940Z,68.33
2019-03-20T06:08:08.461Z,67.77
2019-03-20T06:10:37.892Z,69.67
2019-03-20T06:13:07.340Z,69.11
2019-03-20T06:15:36.853Z,68.42
2019-03-20T06:18:06.295Z,68.87
2019-03-20T06:20:35.759Z,67.98
2019-03-20T06:23:05.216Z,68.41
2019-03-20T06:25:34.664Z,68.70
2019-03-20T06:28:04.111Z,67.70
2019-03-20T06:30:33.529Z,68.29
2019-03-20T06:33:02.962Z,68.27
2019-03-20T06:35:32.419Z,67.79
2019-03-20T06:38:01.839Z,67.77
2019-03-20T06:40:31.333Z,67.85
2019-03-20T06:43:00.765Z,68.06
2019-03-20T06:45:30.231Z,67.43
2019-03-20T06:47:59.657Z,66.89
2019-03-20T06:50:29.126Z,67.00
2019-03-20T06:52:58.641Z,67.79
2019-03-20T06:55:28.126Z,68.35
2019-03-20T06:57:57.619Z,68.04
2019-03-20T07:00:46.414Z,67.04
2019-03-20T07:03:35.116Z,66.95
2019-03-20T07:06:25.024Z,67.44
2019-03-20T07:09:21.324Z,67.98
2019-03-20T07:11:50.815Z,66.27
2019-03-20T07:14:20.472Z,65.94
2019-03-20T07:16:49.963Z,65.45
2019-03-20T07:19:19.647Z,64.43
2019-03-20T07:21:49.300Z,63.36
2019-03-20T07:24:18.703Z,63.70
2019-03-20T07:26:48.261Z,61.73
2019-03-20T07:29:17.824Z,62.98
2019-03-20T07:31:47.292Z,61.29
2019-03-20T07:34:16.763Z,60.36
2019-03-20T07:36:46.234Z,61.55
2019-03-20T07:39:15.737Z,59.96
2019-03-20T07:41:45.156Z,60.74
2019-03-20T07:44:14.599Z,59.08
2019-03-20T07:46:44.148Z,60.56
2019-03-20T07:49:13.628Z,59.96
2019-03-20T07:51:43.117Z,60.46
2019-03-20T07:54:12.565Z,60.49
2019-03-20T07:56:42.036Z,60.92
2019-03-20T07:59:11.467Z,59.99
2019-03-20T08:01:41.063Z,60.86
2019-03-20T08:04:10.596Z,60.52
2019-03-20T08:06:40.055Z,60.15
2019-03-20T08:09:09.640Z,59.31
2019-03-20T08:11:39.159Z,58.99
2019-03-20T08:14:08.620Z,58.45
2019-03-20T08:16:38.150Z,57.97
2019-03-20T08:19:07.646Z,57.25
2019-03-20T08:21:37.280Z,56.61
2019-03-20T08:24:06.823Z,57.06
2019-03-20T08:26:36.405Z,56.37
2019-03-20T08:29:05.877Z,57.96
2019-03-20T08:31:35.329Z,56.45
2019-03-20T08:34:04.839Z,56.06
2019-03-20T08:36:34.271Z,55.55
2019-03-20T08:39:04.743Z,55.52
2019-03-20T08:41:34.249Z,54.66
2019-03-20T08:44:03.717Z,55.79
2019-03-20T08:46:33.248Z,54.61
2019-03-20T08:49:02.828Z,54.35
2019-03-20T08:51:32.314Z,53.92
2019-03-20T08:54:01.833Z,53.05
2019-03-20T08:56:31.269Z,51.76
2019-03-20T08:59:00.784Z,51.69
2019-03-20T09:01:30.479Z,50.03
2019-03-20T09:04:00.104Z,49.50
2019-03-20T09:06:29.594Z,49.45
2019-03-20T09:08:59.069Z,49.74
2019-03-20T09:11:28.504Z,49.66
2019-03-20T09:13:58.110Z,48.48
2019-03-20T09:16:27.802Z,49.30
2019-03-20T09:18:57.323Z,47.06
2019-03-20T09:21:26.830Z,47.11
2019-03-20T09:23:56.400Z,46.83
2019-03-20T09:26:25.829Z,45.58
2019-03-20T09:28:55.280Z,44.29
2019-03-20T09:31:24.788Z,45.68
2019-03-20T09:33:54.474Z,45.55
2019-03-20T09:36:27.056Z,44.48
2019-03-20T09:38:59.238Z,45.92
2019-03-20T09:41:28.696Z,42.21
2019-03-20T09:43:58.169Z,41.30
2019-03-20T09:46:27.693Z,43.71
2019-03-20T09:48:57.254Z,41.18
2019-03-20T09:51:26.806Z,43.98
2019-03-20T09:53:56.220Z,44.54
2019-03-20T09:56:25.720Z,43.39
2019-03-20T09:58:55.315Z,41.63
2019-03-20T10:01:24.853Z,41.04
2019-03-20T10:03:54.302Z,41.19
2019-03-20T10:06:23.792Z,40.51
2019-03-20T10:08:54.315Z,40.62
2019-03-20T10:11:24.083Z,40.25
2019-03-20T10:13:53.545Z,40.25
2019-03-20T10:16:23.107Z,38.74
2019-03-20T10:18:55.789Z,37.08
2019-03-20T10:21:25.265Z,37.08
2019-03-20T10:23:54.774Z,39.81
2019-03-20T10:26:24.240Z,38.16
2019-03-20T10:28:53.717Z,37.37
2019-03-20T10:31:23.253Z,36.17
2019-03-20T10:33:52.675Z,36.11
2019-03-20T10:36:22.118Z,36.09
2019-03-20T10:38:51.713Z,36.96
2019-03-20T10:41:21.103Z,37.78
2019-03-20T10:43:52.340Z,36.42
2019-03-20T10:46:22.005Z,36.42
2019-03-20T10:48:51.428Z,36.95
2019-03-20T10:51:21.410Z,36.95
2019-03-20T10:53:50.873Z,37.35
2019-03-20T10:56:20.305Z,38.35
2019-03-20T10:58:49.742Z,38.35
2019-03-20T11:01:19.232Z,35.86
2019-03-20T11:03:48.725Z,36.83
2019-03-20T11:06:18.451Z,37.98
2019-03-20T11:08:47.998Z,37.04
2019-03-20T11:11:26.985Z,37.04
2019-03-20T11:13:51.790Z,37.31
2019-03-20T11:16:23.336Z,35.07
2019-03-20T11:18:52.550Z,36.63
2019-03-20T11:21:22.151Z,35.54
2019-03-20T11:23:51.663Z,34.43
2019-03-20T11:26:21.161Z,33.30
2019-03-20T11:28:53.358Z,33.30
2019-03-20T11:31:23.028Z,34.02
2019-03-20T11:33:52.529Z,33.90
2019-03-20T11:36:22.009Z,36.11
2019-03-20T11:38:52.996Z,36.08
2019-03-20T11:41:22.455Z,35.90
2019-03-20T11:43:51.856Z,35.83
2019-03-20T11:46:21.763Z,33.94
2019-03-20T11:48:51.140Z,35.74
2019-03-20T11:51:20.604Z,35.95
2019-03-20T11:53:50.193Z,35.40
2019-03-20T11:56:19.791Z,36.44
2019-03-20T11:58:49.268Z,36.44
2019-03-20T12:01:19.033Z,35.31
2019-03-20T12:03:48.812Z,35.31
2019-03-20T12:06:18.527Z,36.07
2019-03-20T12:08:48.128Z,35.11
2019-03-20T12:11:17.549Z,34.72
2019-03-20T12:13:47.151Z,36.56
2019-03-20T12:16:16.662Z,36.56
2019-03-20T12:18:46.157Z,34.63
2019-03-20T12:21:15.709Z,34.99
2019-03-20T12:23:45.238Z,36.30
2019-03-20T12:26:14.729Z,35.65
2019-03-20T12:28:44.212Z,35.65
2019-03-20T12:31:13.702Z,35.88
2019-03-20T12:33:43.281Z,36.89
2019-03-20T12:36:12.946Z,37.28
2019-03-20T12:38:42.409Z,34.83
2019-03-20T12:41:12.007Z,34.78
2019-03-20T12:43:41.636Z,36.06
2019-03-20T12:46:11.150Z,35.75
2019-03-20T12:48:40.690Z,36.03
2019-03-20T12:51:10.222Z,36.03
2019-03-20T12:53:39.696Z,35.81
2019-03-20T12:56:09.257Z,35.81
2019-03-20T12:58:40.355Z,37.14
2019-03-20T13:01:09.839Z,36.29
2019-03-20T13:03:39.347Z,34.29
2019-03-20T13:06:09.094Z,35.81
2019-03-20T13:08:38.819Z,35.65
2019-03-20T13:11:11.015Z,36.26
2019-03-20T13:13:40.564Z,38.86
2019-03-20T13:16:10.313Z,38.86
2019-03-20T13:18:39.802Z,39.07
2019-03-20T13:21:09.246Z,39.01
2019-03-20T13:23:39.007Z,39.01
2019-03-20T13:26:10.031Z,39.00
2019-03-20T13:28:41.189Z,40.64
2019-03-20T13:31:19.274Z,39.31
2019-03-20T13:33:49.325Z,39.60
2019-03-20T13:36:19.194Z,38.90
2019-03-20T13:38:48.688Z,38.56
2019-03-20T13:41:19.493Z,39.06
2019-03-20T13:43:49.046Z,38.10
2019-03-20T13:46:18.653Z,38.51
2019-03-20T13:48:48.092Z,38.51
2019-03-20T13:51:17.703Z,39.38
2019-03-20T13:53:47.262Z,39.75
2019-03-20T13:56:16.875Z,41.19
2019-03-20T13:58:46.322Z,41.71
2019-03-20T14:01:30.252Z,41.95
2019-03-20T14:04:00.072Z,43.49
2019-03-20T14:06:32.481Z,44.66
2019-03-20T14:09:02.054Z,44.41
2019-03-20T14:11:31.503Z,45.07
2019-03-20T14:14:01.070Z,44.76
2019-03-20T14:16:32.662Z,45.39
2019-03-20T14:19:01.851Z,44.62
2019-03-20T14:21:31.362Z,44.55
2019-03-20T14:24:00.922Z,45.15
2019-03-20T14:26:30.459Z,46.49
2019-03-20T14:29:00.050Z,47.43
2019-03-20T14:31:29.465Z,47.57
2019-03-20T14:33:59.040Z,47.62
2019-03-20T14:36:28.441Z,48.06
2019-03-20T14:38:58.004Z,48.68
2019-03-20T14:41:27.596Z,48.18
2019-03-20T14:43:57.208Z,47.90
2019-03-20T14:46:26.629Z,47.64
2019-03-20T14:48:56.178Z,48.59
2019-03-20T14:51:25.810Z,49.72
2019-03-20T14:53:55.358Z,49.69
2019-03-20T14:56:26.176Z,49.70
2019-03-20T14:58:55.691Z,50.00
2019-03-20T15:01:25.263Z,49.01
2019-03-20T15:03:54.921Z,50.06
2019-03-20T15:06:24.453Z,50.80
2019-03-20T15:08:54.011Z,51.34
2019-03-20T15:11:23.549Z,51.45
2019-03-20T15:13:53.193Z,49.99
2019-03-20T15:16:22.662Z,50.34
2019-03-20T15:18:52.319Z,50.85
2019-03-20T15:21:22.244Z,50.52
2019-03-20T15:23:51.889Z,51.42
2019-03-20T15:26:21.411Z,51.92
2019-03-20T15:28:50.917Z,52.04
2019-03-20T15:31:20.344Z,51.83
2019-03-20T15:33:49.839Z,53.50
2019-03-20T15:36:22.598Z,54.26
2019-03-20T15:38:52.040Z,54.79
2019-03-20T15:41:21.627Z,55.96
2019-03-20T15:43:51.083Z,51.83
2019-03-20T15:46:20.832Z,48.89
2019-03-20T15:48:50.290Z,49.50
2019-03-20T15:51:19.922Z,48.42
2019-03-20T15:53:49.377Z,48.49
2019-03-20T15:56:19.038Z,49.63
2019-03-20T15:58:48.544Z,50.15
2019-03-20T16:01:18.042Z,50.09
2019-03-20T16:03:48.373Z,53.54
2019-03-20T16:06:17.858Z,57.19
2019-03-20T16:08:47.323Z,59.19
2019-03-20T16:11:16.823Z,60.00
2019-03-20T16:13:46.275Z,60.45
2019-03-20T16:16:15.839Z,60.88
2019-03-20T16:18:45.363Z,61.30
2019-03-20T16:21:14.894Z,61.50
2019-03-20T16:23:44.370Z,61.38
2019-03-20T16:26:14.067Z,61.58
2019-03-20T16:28:43.490Z,62.22
2019-03-20T16:31:12.997Z,62.77
2019-03-20T16:33:42.456Z,63.57
2019-03-20T16:36:12.004Z,63.97
2019-03-20T16:38:41.463Z,64.35
2019-03-20T16:41:16.878Z,64.77
2019-03-20T16:43:42.086Z,64.97
2019-03-20T16:46:11.529Z,65.07
2019-03-20T16:48:41.006Z,64.68
2019-03-20T16:51:10.591Z,65.17
2019-03-20T16:53:40.169Z,65.50
2019-03-20T16:56:09.632Z,66.24
2019-03-20T16:58:39.303Z,65.88
2019-03-20T17:01:08.732Z,66.11
2019-03-20T17:03:38.202Z,66.37
2019-03-20T17:06:07.686Z,66.21
2019-03-20T17:08:40.089Z,66.21
2019-03-20T17:11:09.598Z,66.53
2019-03-20T17:13:39.071Z,66.98
2019-03-20T17:16:08.521Z,67.07
2019-03-20T17:18:38.222Z,67.28
2019-03-20T17:21:07.740Z,67.11
2019-03-20T17:23:37.236Z,67.35
2019-03-20T17:26:06.693Z,67.39
2019-03-20T17:28:36.270Z,67.14
2019-03-20T17:31:05.994Z,67.45
2019-03-20T17:33:35.392Z,67.08
2019-03-20T17:36:05.244Z,67.51
2019-03-20T17:38:34.931Z,67.43
2019-03-20T17:41:04.465Z,68.00
2019-03-20T17:43:33.963Z,68.35
2019-03-20T17:46:03.528Z,68.32
2019-03-20T17:48:33.006Z,69.00
2019-03-20T17:51:02.508Z,69.20
2019-03-20T17:53:31.941Z,69.20
2019-03-20T17:56:01.532Z,69.74
2019-03-20T17:58:30.984Z,69.93
2019-03-20T18:01:00.437Z,70.06
2019-03-20T18:03:29.963Z,70.76
2019-03-20T18:05:59.426Z,70.86
2019-03-20T18:08:28.914Z,70.91
2019-03-20T18:10:58.438Z,71.08
2019-03-20T18:13:27.943Z,71.07
2019-03-20T18:15:57.458Z,71.46
2019-03-20T18:18:26.927Z,71.72
2019-03-20T18:20:56.441Z,71.90
2019-03-20T18:23:25.883Z,71.68
2019-03-20T18:25:55.387Z,71.23
2019-03-20T18:28:24.936Z,70.92
2019-03-20T18:30:54.521Z,70.79
2019-03-20T18:33:25.176Z,70.50
2019-03-20T18:35:54.602Z,70.51
2019-03-20T18:38:24.060Z,69.79
2019-03-20T18:40:54.612Z,70.05
2019-03-20T18:43:24.124Z,70.05
2019-03-20T18:45:53.571Z,69.63
2019-03-20T18:48:23.041Z,69.82
2019-03-20T18:50:52.492Z,69.39
2019-03-20T18:53:21.971Z,68.89
2019-03-20T18:55:51.437Z,68.40
2019-03-20T18:58:20.950Z,67.54
2019-03-20T19:00:50.601Z,66.57
2019-03-20T19:03:24.856Z,65.04
2019-03-20T19:05:57.201Z,63.19
2019-03-20T19:08:26.824Z,62.89
2019-03-20T19:10:56.372Z,63.34
2019-03-20T19:13:26.936Z,62.98
2019-03-20T19:15:56.383Z,63.29
2019-03-20T19:18:25.878Z,63.27
2019-03-20T19:20:55.338Z,63.02
2019-03-20T19:23:24.857Z,63.63
2019-03-20T19:25:54.333Z,63.81
2019-03-20T19:28:23.786Z,64.63
2019-03-20T19:30:53.218Z,64.63
2019-03-20T19:33:25.417Z,64.31
2019-03-20T19:35:56.348Z,64.57
2019-03-20T19:38:34.562Z,63.99
2019-03-20T19:40:57.166Z,64.06
2019-03-20T19:43:26.694Z,64.32
2019-03-20T19:45:56.226Z,64.29
2019-03-20T19:48:25.691Z,64.78
2019-03-20T19:50:55.152Z,64.33
2019-03-20T19:53:24.597Z,64.06
2019-03-20T19:55:54.085Z,63.69
2019-03-20T19:58:23.545Z,63.04
2019-03-20T20:00:52.987Z,62.69
2019-03-20T20:03:22.441Z,61.57
2019-03-20T20:05:52.943Z,61.17
2019-03-20T20:08:22.301Z,59.95
2019-03-20T20:10:51.792Z,58.90
2019-03-20T20:13:21.323Z,59.19
2019-03-20T20:15:52.428Z,59.63
2019-03-20T20:18:21.959Z,59.24
2019-03-20T20:20:51.472Z,59.40
2019-03-20T20:23:20.944Z,59.10
2019-03-20T20:25:50.446Z,59.60
2019-03-20T20:28:19.896Z,59.10
2019-03-20T20:30:49.363Z,59.81
2019-03-20T20:33:18.827Z,59.81
2019-03-20T20:35:48.282Z,60.31
2019-03-20T20:38:17.766Z,60.58
2019-03-20T20:40:47.170Z,59.99
2019-03-20T20:43:16.610Z,60.44
2019-03-20T20:45:46.050Z,60.56
2019-03-20T20:48:15.465Z,59.86
2019-03-20T20:50:44.902Z,59.91
2019-03-20T20:53:14.348Z,60.12
2019-03-20T20:55:43.828Z,60.12
2019-03-20T20:58:13.291Z,61.43
2019-03-20T21:00:42.746Z,62.71
2019-03-20T21:03:12.284Z,64.91
2019-03-20T21:05:41.755Z,65.82
2019-03-20T21:08:11.232Z,66.34
2019-03-20T21:10:40.681Z,66.84
2019-03-20T21:13:10.149Z,67.22
2019-03-20T21:15:41.526Z,67.79
2019-03-20T21:18:16.615Z,68.26
2019-03-20T21:20:47.688Z,69.38
2019-03-20T21:23:57.039Z,70.38
2019-03-20T21:26:49.883Z,71.79
2019-03-20T21:29:38.677Z,71.67
2019-03-20T21:32:19.977Z,72.17
2019-03-20T21:35:09.969Z,72.38
2019-03-20T21:38:04.973Z,72.59
2019-03-20T21:41:03.279Z,72.65
2019-03-20T21:43:47.591Z,72.99
2019-03-20T21:46:22.612Z,72.69
2019-03-20T21:48:51.991Z,72.39
2019-03-20T21:51:21.421Z,72.71
2019-03-20T21:54:05.819Z,72.59
2019-03-20T21:56:40.712Z,72.26
2019-03-20T21:59:38.804Z,72.30
2019-03-20T22:02:42.564Z,72.62
2019-03-20T22:05:38.854Z,72.71
2019-03-20T22:08:08.239Z,73.02
2019-03-20T22:10:58.363Z,72.68
2019-03-20T22:13:39.803Z,72.72
2019-03-20T22:16:45.224Z,72.91
2019-03-20T22:19:23.177Z,73.12
2019-03-20T22:22:15.021Z,72.85
2019-03-20T22:25:20.190Z,72.70
2019-03-20T22:28:16.669Z,72.52
2019-03-20T22:30:46.037Z,72.78
2019-03-20T22:33:51.996Z,73.15
2019-03-20T22:36:21.448Z,72.51
2019-03-20T22:39:29.400Z,72.56
2019-03-20T22:42:20.010Z,72.76
2019-03-20T22:44:58.344Z,73.24
2019-03-20T22:48:03.955Z,73.27
2019-03-20T22:50:56.766Z,73.39
2019-03-20T22:54:03.019Z,73.42
2019-03-20T22:56:40.879Z,73.12
2019-03-20T22:59:10.315Z,72.83
2019-03-20T23:01:42.708Z,73.09
2019-03-20T23:04:15.059Z,73.13
2019-03-20T23:06:44.498Z,72.81
2019-03-20T23:09:13.969Z,72.78
2019-03-20T23:11:43.449Z,73.26
2019-03-20T23:14:13.012Z,72.81
2019-03-20T23:16:42.467Z,72.86
2019-03-20T23:19:11.889Z,72.11
2019-03-20T23:21:44.075Z,72.04
2019-03-20T23:24:13.546Z,71.28
2019-03-20T23:26:42.987Z,71.22
2019-03-20T23:29:12.454Z,70.92
2019-03-20T23:31:41.990Z,70.82
2019-03-20T23:34:11.424Z,71.59
2019-03-20T23:36:40.869Z,71.48
2019-03-20T23:39:10.331Z,71.35
2019-03-20T23:41:39.680Z,71.31
2019-03-20T23:44:09.049Z,71.96
2019-03-20T23:46:38.501Z,71.33
2019-03-20T23:49:14.088Z,71.78
2019-03-20T23:51:43.585Z,71.21
2019-03-20T23:54:14.520Z,71.67
2019-03-20T23:56:43.970Z,71.53
2019-03-20T23:59:13.536Z,71.33
